Time;durP1;ratioP1;P1;durP2;ratioP2;P2;SDS_P1;SDS_P2;PMS_P1;PMS_P2;Temp;Humidity;BMP_temperature;BMP_pressure;BME280_temperature;BME280_humidity;BME280_pressure;Samples;Min_cycle;Max_cycle;Signal;HPM_P1;HPM_P2
2021/04/25 00:00:41;;;;;;;17.02;9.25;;;;;;;4.72;68.91;96332.63;6347905;22;20080;-92
2021/04/25 00:03:07;;;;;;;20.48;10.18;;;;;;;4.98;69.38;96365.88;6348055;22;20005;-91
2021/04/25 00:05:32;;;;;;;14.63;8.88;;;;;;;4.97;68.91;96361.69;6347852;22;20074;-92
2021/04/25 00:07:58;;;;;;;15.35;9.63;;;;;;;5.03;70.85;96382.72;6347814;22;20009;-93
2021/04/25 00:10:23;;;;;;;14.07;9.55;;;;;;;4.82;70.13;96365.13;6347764;22;20006;-93
2021/04/25 00:12:49;;;;;;;15.55;9.30;;;;;;;4.97;69.44;96398.63;6375087;22;20002;-92
2021/04/25 00:15:22;;;;;;;14.18;9.15;;;;;;;4.73;69.73;96357.63;6347724;22;19998;-92
2021/04/25 00:17:48;;;;;;;20.10;8.90;;;;;;;4.22;70.59;96276.50;6339325;22;20003;-92
2021/04/25 00:20:15;;;;;;;13.77;8.43;;;;;;;4.71;69.67;96357.28;6347786;22;19998;-92
2021/04/25 00:22:41;;;;;;;15.18;8.07;;;;;;;5.04;68.37;96401.13;6375349;22;20010;-92
2021/04/25 00:25:09;;;;;;;15.85;8.45;;;;;;;5.03;67.91;96407.69;6347988;22;20002;-92
2021/04/25 00:27:34;;;;;;;13.55;7.68;;;;;;;4.68;68.91;96345.41;6348137;22;20024;-92
2021/04/25 00:30:00;;;;;;;16.45;8.50;;;;;;;4.62;69.53;96324.81;6347795;22;20084;-92
2021/04/25 00:32:26;;;;;;;13.45;8.27;;;;;;;4.81;70.80;96363.59;6348179;22;20013;-93
2021/04/25 00:34:52;;;;;;;12.93;8.13;;;;;;;5.01;70.26;96385.84;6348287;22;20009;-93
2021/04/25 00:37:17;;;;;;;77.97;11.05;;;;;;;4.62;69.87;96311.34;6347884;22;20317;-92
2021/04/25 00:39:45;;;;;;;12.80;8.40;;;;;;;4.85;69.22;96358.91;6347274;22;20078;-94
2021/04/25 00:42:12;;;;;;;12.68;8.50;;;;;;;4.58;68.56;96332.19;6347825;22;20013;-93
2021/04/25 00:44:37;;;;;;;17.00;8.75;;;;;;;4.75;68.94;96346.44;6348365;22;20050;-92
2021/04/25 00:47:03;;;;;;;13.05;7.95;;;;;;;4.70;70.81;96342.31;6349185;22;20035;-93
2021/04/25 00:49:28;;;;;;;13.75;8.27;;;;;;;4.63;68.57;96337.84;6350617;22;20307;-92
2021/04/25 00:51:53;;;;;;;14.07;9.20;;;;;;;4.68;68.74;96348.09;6349310;22;20030;-92
2021/04/25 00:54:19;;;;;;;14.25;8.63;;;;;;;4.88;67.33;96377.66;6349581;22;20362;-91
2021/04/25 00:56:45;;;;;;;14.40;9.43;;;;;;;4.63;69.21;96340.53;6349501;22;20292;-92
2021/04/25 00:59:11;;;;;;;16.08;9.48;;;;;;;4.20;68.37;96268.09;6349761;22;20006;-92
2021/04/25 01:01:36;;;;;;;14.48;8.77;;;;;;;4.65;68.79;96338.19;6349411;22;20410;-92
2021/04/25 01:04:02;;;;;;;13.23;8.48;;;;;;;5.04;69.18;96386.91;6349274;22;20069;-92
2021/04/25 01:06:27;;;;;;;15.88;9.50;;;;;;;4.51;70.13;96318.91;6349364;22;20370;-92
2021/04/25 01:08:52;;;;;;;14.35;8.88;;;;;;;4.82;70.08;96365.13;6349513;22;20011;-91
2021/04/25 01:11:18;;;;;;;13.57;8.43;;;;;;;4.47;70.35;96318.97;6349346;22;20013;-91
2021/04/25 01:13:44;;;;;;;16.80;9.45;;;;;;;4.64;69.81;96341.31;6349266;22;20022;-92
2021/04/25 01:16:10;;;;;;;14.90;9.65;;;;;;;4.82;70.77;96373.94;6377073;22;20002;-91
2021/04/25 01:18:35;;;;;;;17.13;9.15;;;;;;;4.71;71.40;96341.13;6349464;22;20029;-91
2021/04/25 01:21:05;;;;;;;14.50;9.85;;;;;;;5.10;72.14;96383.28;6349380;22;20267;-93
2021/04/25 01:23:31;;;;;;;20.95;10.48;;;;;;;5.08;72.11;96380.28;6349265;22;20006;-92
2021/04/25 01:25:56;;;;;;;14.98;9.95;;;;;;;4.83;71.46;96343.16;6348959;22;20008;-92
2021/04/25 01:28:22;;;;;;;17.42;9.80;;;;;;;4.70;71.74;96329.63;6349084;22;20012;-92
2021/04/25 01:30:48;;;;;;;17.80;9.88;;;;;;;4.70;72.03;96340.38;6349310;22;20002;-92
2021/04/25 01:33:13;;;;;;;43.75;10.93;;;;;;;4.61;71.89;96324.06;6349280;22;20085;-91
2021/04/25 01:35:39;;;;;;;17.92;9.93;;;;;;;4.58;71.68;96308.75;6350460;22;20026;-92
2021/04/25 01:38:04;;;;;;;20.42;9.10;;;;;;;4.72;69.49;96315.75;6349130;22;20094;-92
2021/04/25 01:40:31;;;;;;;15.98;9.63;;;;;;;4.63;69.07;96315.56;6349098;22;20013;-92
2021/04/25 01:42:59;;;;;;;15.88;9.55;;;;;;;4.60;70.90;96317.16;6349057;22;20386;-91
2021/04/25 01:45:25;;;;;;;13.85;9.95;;;;;;;4.37;70.63;96280.41;6349036;22;19999;-91
2021/04/25 01:47:52;;;;;;;12.30;9.02;;;;;;;4.49;70.25;96297.06;6349145;22;20043;-91
2021/04/25 01:50:20;;;;;;;13.57;8.82;;;;;;;4.68;66.85;96339.28;6348913;22;20089;-92
2021/04/25 01:52:46;;;;;;;13.07;8.90;;;;;;;4.34;68.65;96288.53;6349079;22;20291;-92
2021/04/25 01:55:13;;;;;;;12.98;8.52;;;;;;;4.32;67.26;96288.22;6348963;22;20052;-92
2021/04/25 01:57:39;;;;;;;13.90;8.07;;;;;;;4.92;68.33;96366.81;6348442;22;20080;-92
2021/04/25 02:00:11;;;;;;;13.77;7.90;;;;;;;4.76;68.42;96348.72;6348256;22;20018;-92
2021/04/25 02:02:37;;;;;;;15.13;8.07;;;;;;;4.41;68.83;96309.91;6344737;22;20067;-92
2021/04/25 02:05:03;;;;;;;14.35;7.65;;;;;;;4.40;67.83;96317.22;6349026;22;20006;-92
2021/04/25 02:07:29;;;;;;;11.90;6.43;;;;;;;4.33;67.88;96316.63;6348694;22;20002;-92
2021/04/25 02:09:54;;;;;;;10.93;6.75;;;;;;;4.70;68.39;96353.09;6348823;22;20013;-93
2021/04/25 02:15:41;;;;;;;12.73;7.38;;;;;;;4.40;68.69;96317.22;6376652;22;20059;-93
2021/04/25 02:18:07;;;;;;;11.90;7.63;;;;;;;4.33;67.58;96306.63;6348579;22;20010;-92
2021/04/25 02:20:33;;;;;;;13.52;8.10;;;;;;;4.62;68.65;96349.78;6348376;22;20002;-93
2021/04/25 02:22:59;;;;;;;12.70;7.88;;;;;;;4.54;68.41;96347.69;6349047;22;19998;-93
2021/04/25 02:25:24;;;;;;;12.70;7.75;;;;;;;4.28;70.07;96306.34;6349315;22;20077;-93
2021/04/25 02:27:51;;;;;;;12.63;7.78;;;;;;;4.54;69.58;96355.75;6348720;22;20006;-93
2021/04/25 02:30:20;;;;;;;13.48;8.15;;;;;;;3.98;69.99;96273.16;6349254;22;19998;-93
2021/04/25 02:32:47;;;;;;;12.40;7.95;;;;;;;4.18;68.68;96291.97;6348858;22;20085;-93
2021/04/25 02:35:13;;;;;;;12.57;7.47;;;;;;;4.47;67.84;96346.66;6348664;22;20009;-92
2021/04/25 02:37:40;;;;;;;16.23;8.23;;;;;;;4.07;69.95;96292.19;6348545;22;20270;-93
2021/04/25 02:40:08;;;;;;;13.95;7.63;;;;;;;3.84;68.99;96252.72;6348223;22;20003;-93
2021/04/25 02:42:34;;;;;;;15.27;8.00;;;;;;;3.85;69.67;96259.63;6348605;22;19998;-93
2021/04/25 02:44:59;;;;;;;11.43;7.35;;;;;;;3.79;69.51;96245.16;6348803;22;20075;-94
2021/04/25 02:47:28;;;;;;;12.38;7.32;;;;;;;4.41;70.17;96334.84;6352202;22;20002;-94
2021/04/25 02:49:55;;;;;;;14.52;7.68;;;;;;;3.66;71.34;96222.78;6353604;22;20011;-93
2021/04/25 02:52:25;;;;;;;14.30;7.22;;;;;;;4.34;70.62;96326.94;6376630;22;20118;-93
2021/04/25 02:54:51;;;;;;;12.63;6.53;;;;;;;3.99;68.77;96255.09;6348625;22;20032;-93
2021/04/25 02:57:17;;;;;;;12.95;6.78;;;;;;;3.97;70.19;96262.84;6348488;22;20085;-93
2021/04/25 02:59:42;;;;;;;13.05;7.60;;;;;;;3.89;68.91;96262.25;6375705;22;20259;-93
2021/04/25 03:02:07;;;;;;;12.32;7.38;;;;;;;3.84;70.90;96247.38;6348026;22;20032;-93
2021/04/25 03:04:33;;;;;;;10.98;6.85;;;;;;;3.57;70.19;96209.13;6348420;22;20006;-92
2021/04/25 03:06:58;;;;;;;11.10;7.18;;;;;;;3.75;69.75;96228.34;6376454;22;19994;-93
2021/04/25 03:09:23;;;;;;;12.40;8.45;;;;;;;3.98;70.16;96251.66;6348424;22;20008;-93
2021/04/25 03:11:49;;;;;;;16.25;8.68;;;;;;;3.54;68.39;96200.00;6348471;22;19998;-94
2021/04/25 03:14:14;;;;;;;12.80;7.93;;;;;;;4.01;69.78;96266.22;6348291;22;20013;-93
2021/04/25 03:16:40;;;;;;;13.23;7.00;;;;;;;3.87;69.79;96248.44;6348288;22;20061;-93
2021/04/25 03:19:05;;;;;;;10.05;7.32;;;;;;;3.91;71.33;96266.00;6348061;22;20006;-94
2021/04/25 03:21:30;;;;;;;11.10;7.60;;;;;;;3.72;70.31;96229.16;6348148;22;19998;-93
2021/04/25 03:23:56;;;;;;;14.25;7.38;;;;;;;4.19;70.39;96302.28;6348192;22;19998;-93
2021/04/25 03:26:21;;;;;;;15.20;7.05;;;;;;;3.70;70.93;96228.09;6347844;22;19999;-94
2021/04/25 03:28:47;;;;;;;13.45;7.63;;;;;;;3.70;70.89;96222.72;6347925;22;20089;-93
2021/04/25 03:31:12;;;;;;;13.68;7.03;;;;;;;3.60;68.78;96217.13;6348097;22;20059;-93
2021/04/25 03:33:37;;;;;;;13.70;7.22;;;;;;;3.82;70.02;96259.69;6348196;22;20061;-93
2021/04/25 03:36:04;;;;;;;13.38;7.47;;;;;;;3.63;70.79;96205.56;6347891;22;20002;-93
2021/04/25 03:38:30;;;;;;;12.27;6.70;;;;;;;3.98;71.22;96261.66;6347983;22;20014;-93
2021/04/25 03:40:56;;;;;;;11.55;6.90;;;;;;;3.83;70.28;96239.69;6348122;22;20363;-93
2021/04/25 03:43:22;;;;;;;11.68;7.05;;;;;;;3.73;70.98;96219.97;6348129;22;20026;-93
2021/04/25 03:45:48;;;;;;;11.82;7.90;;;;;;;3.64;71.60;96215.13;6348079;22;20381;-93
2021/04/25 03:48:13;;;;;;;15.07;8.63;;;;;;;3.80;71.07;96238.59;6348104;22;20021;-93
2021/04/25 03:50:38;;;;;;;11.60;7.85;;;;;;;3.77;70.50;96225.25;6348457;22;20034;-93
2021/04/25 03:53:04;;;;;;;16.20;10.20;;;;;;;3.96;72.64;96253.28;6348031;22;20266;-92
2021/04/25 03:55:29;;;;;;;13.95;8.30;;;;;;;3.70;70.56;96211.97;6347818;22;20033;-93
2021/04/25 03:57:56;;;;;;;15.95;8.85;;;;;;;3.72;70.47;96236.47;6348267;22;20028;-93
2021/04/25 04:00:22;;;;;;;14.80;8.57;;;;;;;3.89;70.59;96262.25;6375235;22;20398;-94
2021/04/25 04:02:47;;;;;;;13.77;9.02;;;;;;;3.65;70.84;96213.97;6348013;22;20080;-93
2021/04/25 04:05:13;;;;;;;18.20;8.63;;;;;;;3.66;72.09;96209.34;6347947;22;20009;-93
2021/04/25 04:07:39;;;;;;;12.88;8.93;;;;;;;3.67;73.10;96208.94;6348048;22;20002;-94
2021/04/25 04:10:06;;;;;;;15.02;8.50;;;;;;;3.79;71.77;96228.28;6348164;22;20394;-94
2021/04/25 04:12:32;;;;;;;12.90;8.88;;;;;;;3.82;74.52;96209.38;6348295;22;20086;-92
2021/04/25 04:14:58;;;;;;;15.10;8.75;;;;;;;3.91;72.51;96231.06;6347950;22;20266;-93
2021/04/25 04:17:23;;;;;;;11.77;9.15;;;;;;;3.62;72.05;96198.69;6347918;22;20010;-93
2021/04/25 04:19:49;;;;;;;15.20;9.13;;;;;;;4.04;71.70;96249.25;6348431;22;20362;-94
2021/04/25 04:22:14;;;;;;;15.20;8.65;;;;;;;3.86;71.08;96233.50;6349906;22;19998;-94
2021/04/25 04:24:40;;;;;;;14.05;8.75;;;;;;;3.96;71.71;96240.59;6349869;22;20282;-93
2021/04/25 04:27:06;;;;;;;14.90;8.68;;;;;;;4.03;71.66;96240.41;6349990;22;20022;-92
2021/04/25 04:29:32;;;;;;;16.10;8.55;;;;;;;3.84;71.77;96212.44;6350081;22;20055;-93
2021/04/25 04:31:58;;;;;;;13.32;7.82;;;;;;;4.11;71.54;96259.84;6349787;22;20378;-94
2021/04/25 04:34:23;;;;;;;13.38;7.72;;;;;;;4.41;71.39;96302.56;6349812;22;20009;-93
2021/04/25 04:36:49;;;;;;;13.23;8.00;;;;;;;3.76;71.94;96194.19;6349542;22;20006;-94
2021/04/25 04:39:14;;;;;;;12.90;8.20;;;;;;;4.17;71.40;96258.19;6349714;22;20048;-93
2021/04/25 04:41:40;;;;;;;12.15;8.77;;;;;;;4.25;71.48;96264.16;6349741;22;20279;-94
2021/04/25 04:44:05;;;;;;;15.15;9.20;;;;;;;4.44;69.53;96290.25;6349704;22;20085;-93
2021/04/25 04:46:31;;;;;;;13.57;9.23;;;;;;;4.66;70.86;96312.03;6349744;22;19998;-93
2021/04/25 04:48:57;;;;;;;14.55;9.10;;;;;;;4.17;70.42;96240.13;6349323;22;20007;-94
2021/04/25 04:51:22;;;;;;;19.58;9.55;;;;;;;4.20;71.25;96241.97;6349913;22;19999;-94
2021/04/25 04:53:47;;;;;;;15.52;9.02;;;;;;;4.52;70.65;96299.66;6349203;22;20037;-94
2021/04/25 04:56:13;;;;;;;14.27;8.38;;;;;;;4.40;71.18;96268.78;6349515;22;20089;-91
2021/04/25 04:58:38;;;;;;;14.23;8.65;;;;;;;4.19;71.54;96247.75;6378180;22;19998;-91
2021/04/25 05:01:03;;;;;;;15.70;9.00;;;;;;;4.39;72.20;96277.28;6349456;22;20018;-91
2021/04/25 05:03:29;;;;;;;13.93;9.45;;;;;;;4.42;74.51;96292.56;6349605;22;20030;-91
2021/04/25 05:05:54;;;;;;;18.13;9.50;;;;;;;4.46;74.10;96287.88;6349476;22;20026;-91
2021/04/25 05:08:20;;;;;;;16.20;9.15;;;;;;;4.40;75.11;96286.88;6349759;22;20017;-91
2021/04/25 05:10:45;;;;;;;14.38;8.55;;;;;;;4.35;75.27;96273.91;6349403;22;20006;-91
2021/04/25 05:13:10;;;;;;;19.35;12.45;;;;;;;3.90;76.17;96207.31;6349473;22;20033;-91
2021/04/25 05:15:37;;;;;;;21.35;12.43;;;;;;;4.22;77.41;96254.25;6349587;22;20030;-91
2021/04/25 05:18:03;;;;;;;15.05;10.77;;;;;;;4.03;77.84;96226.22;6349253;22;20028;-91
2021/04/25 05:20:29;;;;;;;14.77;9.90;;;;;;;4.22;79.37;96265.75;6349460;22;20076;-91
2021/04/25 05:22:59;;;;;;;16.63;10.13;;;;;;;4.55;79.63;96325.72;6349769;22;20036;-92
2021/04/25 05:25:25;;;;;;;;;;;;;;;4.51;81.27;96330.44;6349971;22;20003;-91
2021/04/25 05:27:51;;;;;;;15.00;8.82;;;;;;;3.81;78.41;96232.06;6349125;22;19912;-91
2021/04/25 05:30:17;;;;;;;19.20;10.75;;;;;;;4.46;81.01;96325.53;6349404;22;19998;-92
2021/04/25 05:32:43;;;;;;;14.85;9.63;;;;;;;4.09;81.87;96265.63;6348407;22;20089;-92
2021/04/25 05:35:09;;;;;;;13.80;9.98;;;;;;;4.13;81.80;96276.31;6349923;22;20002;-92
2021/04/25 05:37:35;;;;;;;17.23;10.80;;;;;;;4.11;82.01;96276.75;6348606;22;20006;-91
2021/04/25 05:40:00;;;;;;;15.60;12.95;;;;;;;4.25;81.56;96283.72;6349602;22;20415;-94
2021/04/25 05:42:25;;;;;;;14.95;9.70;;;;;;;3.90;81.99;96247.63;6348895;22;20089;-91
2021/04/25 05:44:54;;;;;;;14.13;8.65;;;;;;;4.26;83.21;96330.19;6349203;22;19998;-93
2021/04/25 05:47:19;;;;;;;17.15;9.77;;;;;;;3.64;83.65;96223.19;6348916;22;20008;-95
2021/04/25 05:49:45;;;;;;;16.92;10.38;;;;;;;3.97;81.89;96270.91;6348880;22;20329;-96
2021/04/25 05:55:32;;;;;;;16.58;11.18;;;;;;;3.98;82.68;96272.41;6376205;22;20036;-94
2021/04/25 05:57:58;;;;;;;17.65;11.93;;;;;;;4.02;83.00;96279.22;6348947;22;20081;-93
2021/04/25 06:00:25;;;;;;;14.32;10.80;;;;;;;3.92;83.70;96256.03;6348588;22;20021;-94
2021/04/25 06:02:56;;;;;;;18.27;11.38;;;;;;;4.36;83.04;96307.69;6350552;22;20045;-95
2021/04/25 06:05:22;;;;;;;17.85;12.88;;;;;;;4.01;81.86;96252.78;6359339;22;19998;-93
2021/04/25 06:07:51;;;;;;;26.48;16.65;;;;;;;3.91;82.30;96220.31;6349710;22;20006;-94
2021/04/25 06:10:18;;;;;;;17.52;11.63;;;;;;;4.06;82.96;96247.66;6354214;22;20007;-94
2021/04/25 06:12:47;;;;;;;19.30;12.98;;;;;;;4.24;82.96;96278.78;6348771;22;20319;-95
2021/04/25 06:15:13;;;;;;;18.60;11.93;;;;;;;4.13;82.96;96276.31;6348706;22;20010;-95
2021/04/25 06:17:39;;;;;;;19.67;11.45;;;;;;;4.00;81.58;96256.66;6348394;22;20006;-93
2021/04/25 06:20:06;;;;;;;17.55;12.25;;;;;;;4.09;82.26;96273.69;6348624;22;20025;-94
2021/04/25 06:22:32;;;;;;;16.63;11.88;;;;;;;3.81;81.97;96244.75;6348671;22;20039;-93
2021/04/25 06:24:57;;;;;;;17.88;12.60;;;;;;;3.92;81.66;96264.09;6348569;22;20077;-95
2021/04/25 06:27:26;;;;;;;19.85;12.95;;;;;;;4.16;85.24;96287.00;6348259;22;20362;-94
2021/04/25 06:29:55;;;;;;;21.02;13.55;;;;;;;4.53;84.91;96332.69;6348359;22;20002;-93
2021/04/25 06:32:21;;;;;;;21.33;13.80;;;;;;;4.57;84.83;96328.00;6348437;22;20006;-91
2021/04/25 06:34:47;;;;;;;19.17;14.18;;;;;;;4.11;83.31;96276.00;6348280;22;20036;-90
2021/04/25 06:37:15;;;;;;;20.65;14.60;;;;;;;4.23;84.13;96256.50;6348721;22;20003;-91
2021/04/25 06:39:41;;;;;;;22.17;15.30;;;;;;;4.43;83.92;96278.72;6348392;22;20012;-93
2021/04/25 06:42:07;;;;;;;21.25;13.45;;;;;;;4.16;82.10;96237.84;6348276;22;20022;-93
2021/04/25 06:44:32;;;;;;;21.98;15.63;;;;;;;4.36;83.50;96259.28;6348253;22;20002;-92
2021/04/25 06:46:58;;;;;;;22.52;15.70;;;;;;;5.03;82.46;96326.19;6348570;22;20001;-91
2021/04/25 06:49:25;;;;;;;24.75;17.30;;;;;;;4.56;83.21;96259.22;6348471;22;19998;-92
2021/04/25 06:51:52;;;;;;;25.35;17.23;;;;;;;4.95;83.44;96325.56;6348143;22;20279;-91
2021/04/25 06:54:18;;;;;;;25.08;17.02;;;;;;;4.66;83.00;96277.81;6348547;22;20013;-91
2021/04/25 06:56:43;;;;;;;24.73;17.20;;;;;;;5.00;84.23;96325.81;6348154;22;20007;-92
2021/04/25 06:59:09;;;;;;;24.33;16.85;;;;;;;4.59;83.72;96250.34;6375830;22;20002;-92
2021/04/25 07:01:34;;;;;;;22.38;16.20;;;;;;;4.63;83.91;96237.53;6348083;22;20371;-92
2021/04/25 07:04:00;;;;;;;30.13;20.15;;;;;;;5.25;82.68;96317.16;6348075;22;20335;-91
2021/04/25 07:06:26;;;;;;;28.05;18.58;;;;;;;5.02;84.52;96281.59;6348183;22;20002;-91
2021/04/25 07:08:52;;;;;;;38.58;23.88;;;;;;;4.73;82.87;96231.91;6347819;22;20012;-91
2021/04/25 07:11:17;;;;;;;31.25;21.70;;;;;;;4.82;82.66;96238.63;6348279;22;19998;-91
2021/04/25 07:13:43;;;;;;;33.40;21.10;;;;;;;5.12;82.23;96267.88;6348156;22;20003;-89
2021/04/25 07:16:09;;;;;;;28.10;20.08;;;;;;;5.22;84.01;96266.09;6347349;22;20011;-90
2021/04/25 07:18:34;;;;;;;22.65;15.52;;;;;;;4.91;81.05;96222.66;6348158;22;20268;-89
2021/04/25 07:21:00;;;;;;;24.08;15.55;;;;;;;5.32;82.92;96256.94;6347681;22;20437;-92
2021/04/25 07:23:25;;;;;;;26.38;17.55;;;;;;;5.60;80.59;96317.44;6348086;22;20084;-90
2021/04/25 07:25:52;;;;;;;25.50;15.65;;;;;;;5.70;81.46;96284.06;6347989;22;20401;-91
2021/04/25 07:28:18;;;;;;;20.50;15.02;;;;;;;5.64;80.09;96256.09;6347633;22;20355;-90
2021/04/25 07:30:47;;;;;;;20.88;15.32;;;;;;;5.78;80.33;96253.00;6348041;22;20002;-91
2021/04/25 07:33:12;;;;;;;24.70;16.35;;;;;;;5.78;81.53;96265.72;6348113;22;20375;-89
2021/04/25 07:35:38;;;;;;;21.70;15.35;;;;;;;5.82;81.76;96269.09;6375606;22;20005;-90
2021/04/25 07:38:03;;;;;;;22.08;15.02;;;;;;;5.84;81.47;96249.78;6348197;22;20325;-90
2021/04/25 07:40:29;;;;;;;24.17;16.05;;;;;;;5.81;81.19;96237.94;6348173;22;20006;-91
2021/04/25 07:42:54;;;;;;;23.10;17.83;;;;;;;5.90;81.96;96240.75;6348254;22;20005;-91
2021/04/25 07:45:20;;;;;;;26.77;19.45;;;;;;;6.02;79.64;96268.94;6375555;22;20028;-91
2021/04/25 07:47:45;;;;;;;23.30;15.48;;;;;;;5.89;81.23;96260.78;6348571;22;20005;-91
2021/04/25 07:50:13;;;;;;;21.15;15.82;;;;;;;5.75;80.94;96226.94;6348117;22;20653;-91
2021/04/25 07:52:40;;;;;;;26.25;16.55;;;;;;;6.03;81.46;96257.72;6348168;22;19999;-90
2021/04/25 07:55:06;;;;;;;22.50;16.20;;;;;;;5.86;82.44;96229.31;6347565;22;20034;-91
2021/04/25 07:57:32;;;;;;;23.77;18.10;;;;;;;6.28;81.86;96300.16;6348120;22;20105;-90
2021/04/25 07:59:57;;;;;;;21.05;15.07;;;;;;;6.15;81.70;96275.09;6347976;22;20050;-91
2021/04/25 08:02:23;;;;;;;21.40;16.15;;;;;;;6.03;80.74;96248.88;6348207;22;20006;-91
2021/04/25 08:04:51;;;;;;;25.10;16.42;;;;;;;5.61;81.60;96200.38;6348033;22;20073;-91
2021/04/25 08:07:17;;;;;;;22.77;15.35;;;;;;;6.40;81.21;96301.34;6348197;22;20239;-91
2021/04/25 08:09:43;;;;;;;22.52;15.40;;;;;;;6.28;81.28;96265.09;6347860;22;20013;-91
2021/04/25 08:12:10;;;;;;;27.48;18.50;;;;;;;6.14;82.28;96249.31;6347935;22;20002;-91
2021/04/25 08:14:35;;;;;;;27.02;18.92;;;;;;;5.91;79.68;96236.91;6347984;22;20271;-91
2021/04/25 08:17:01;;;;;;;30.13;19.88;;;;;;;6.38;81.68;96311.06;6347877;22;20006;-91
2021/04/25 08:19:26;;;;;;;30.30;20.50;;;;;;;6.01;80.79;96241.22;6347656;22;19998;-91
2021/04/25 08:21:51;;;;;;;29.17;19.80;;;;;;;5.85;79.23;96216.25;6347790;22;20006;-91
2021/04/25 08:24:17;;;;;;;24.50;18.80;;;;;;;6.64;79.84;96306.41;6347888;22;20069;-91
2021/04/25 08:26:42;;;;;;;28.35;19.65;;;;;;;6.23;79.64;96227.88;6347610;22;20003;-91
2021/04/25 08:29:08;;;;;;;27.50;19.25;;;;;;;6.67;78.94;96255.03;6347893;22;19998;-91
2021/04/25 08:31:33;;;;;;;22.98;17.98;;;;;;;6.59;77.25;96253.75;6347761;22;20026;-90
2021/04/25 08:33:59;;;;;;;27.23;18.73;;;;;;;6.76;78.24;96265.16;6375452;22;20002;-91
2021/04/25 08:36:24;;;;;;;28.52;19.35;;;;;;;6.77;78.36;96272.84;6349316;22;19998;-91
2021/04/25 08:38:50;;;;;;;25.45;18.27;;;;;;;6.99;75.59;96291.06;6348126;22;20006;-91
2021/04/25 08:41:17;;;;;;;25.40;18.00;;;;;;;7.19;73.81;96312.38;6347756;22;20010;-91
2021/04/25 08:43:44;;;;;;;24.80;19.05;;;;;;;6.99;75.66;96264.81;6347670;22;20004;-91
2021/04/25 08:46:10;;;;;;;21.73;18.42;;;;;;;7.02;75.28;96250.41;6347326;22;20009;-91
2021/04/25 08:48:36;;;;;;;25.05;18.25;;;;;;;7.47;75.86;96299.91;6347874;22;20009;-90
2021/04/25 08:51:02;;;;;;;26.63;18.85;;;;;;;7.42;76.52;96246.41;6347339;22;20010;-90
2021/04/25 08:53:28;;;;;;;23.67;18.17;;;;;;;7.35;75.10;96236.63;6347811;22;20247;-91
2021/04/25 08:55:53;;;;;;;23.50;18.00;;;;;;;7.49;73.89;96257.72;6347494;22;20032;-91
2021/04/25 08:58:21;;;;;;;25.08;17.02;;;;;;;7.95;72.81;96289.72;6347700;22;20014;-91
2021/04/25 09:00:47;;;;;;;25.80;18.42;;;;;;;7.97;73.38;96288.09;6347310;22;20015;-91
2021/04/25 09:03:15;;;;;;;21.52;16.40;;;;;;;7.66;72.76;96223.16;6347502;22;19998;-91
2021/04/25 09:05:40;;;;;;;22.35;16.38;;;;;;;7.87;70.64;96246.69;6347799;22;20002;-91
2021/04/25 09:08:07;;;;;;;21.50;16.40;;;;;;;8.11;71.21;96263.22;6349195;22;20006;-91
2021/04/25 09:10:36;;;;;;;23.35;17.10;;;;;;;7.68;68.53;96218.06;6349392;22;20009;-91
2021/04/25 09:13:24;;;;;;;24.38;16.90;;;;;;;8.04;68.49;96230.25;6349139;22;20059;-90
2021/04/25 09:15:52;;;;;;;21.88;17.05;;;;;;;8.41;67.97;96282.63;6349249;22;20248;-91
2021/04/25 09:18:31;;;;;;;23.05;17.08;;;;;;;8.59;69.25;96268.44;6349152;22;20002;-91
2021/04/25 09:21:07;;;;;;;21.25;14.80;;;;;;;8.33;67.70;96230.72;6348972;22;20005;-91
2021/04/25 09:23:33;;;;;;;20.98;15.80;;;;;;;8.40;69.55;96227.75;6349234;22;20013;-91
2021/04/25 09:26:03;;;;;;;22.55;15.52;;;;;;;8.38;69.00;96226.69;6376992;22;19999;-91
2021/04/25 09:28:29;;;;;;;19.60;16.38;;;;;;;8.49;69.35;96212.75;6351559;22;20262;-90
2021/04/25 09:30:58;;;;;;;22.65;17.08;;;;;;;9.16;69.20;96269.63;6351514;22;20006;-91
2021/04/25 09:33:27;;;;;;;22.00;16.85;;;;;;;9.01;66.84;96221.88;6348979;22;20032;-91
2021/04/25 09:35:59;;;;;;;25.02;16.67;;;;;;;9.38;66.91;96258.66;6349011;22;20022;-91
2021/04/25 09:38:33;;;;;;;23.65;17.23;;;;;;;9.40;67.40;96258.19;6349105;22;20006;-91
2021/04/25 09:40:58;;;;;;;21.90;16.30;;;;;;;8.92;66.89;96198.25;6349160;22;20005;-90
2021/04/25 09:43:24;;;;;;;24.25;17.42;;;;;;;9.32;69.48;96227.16;6352711;22;20002;-91
2021/04/25 09:45:53;;;;;;;23.33;15.98;;;;;;;8.96;64.64;96195.41;6349779;22;20079;-91
2021/04/25 09:48:30;;;;;;;22.33;15.27;;;;;;;9.45;63.66;96246.75;6349104;22;20087;-91
2021/04/25 09:51:11;;;;;;;19.95;15.80;;;;;;;9.33;65.05;96247.66;6349115;22;19998;-91
2021/04/25 09:53:59;;;;;;;23.10;16.60;;;;;;;9.44;64.53;96218.13;6376648;22;20069;-91
2021/04/25 09:56:37;;;;;;;21.33;15.70;;;;;;;9.39;64.47;96205.19;6348612;22;20275;-91
2021/04/25 09:59:07;;;;;;;20.30;14.48;;;;;;;9.77;64.72;96239.94;6349132;22;20269;-91
2021/04/25 10:01:38;;;;;;;21.33;15.90;;;;;;;9.63;66.32;96208.00;6339454;22;20050;-91
2021/04/25 10:04:25;;;;;;;18.77;15.30;;;;;;;9.64;64.29;96194.00;6349040;22;19999;-91
2021/04/25 10:06:53;;;;;;;18.83;15.55;;;;;;;9.72;63.78;96235.13;6348458;22;20003;-91
2021/04/25 10:09:19;;;;;;;21.20;15.60;;;;;;;9.77;62.63;96233.75;6348671;22;20031;-91
2021/04/25 10:11:46;;;;;;;21.38;15.63;;;;;;;9.23;65.44;96171.00;6348834;22;20006;-91
2021/04/25 10:14:14;;;;;;;20.63;15.10;;;;;;;9.02;60.18;96169.22;6348453;22;20037;-92
2021/04/25 10:16:41;;;;;;;19.70;14.27;;;;;;;9.15;63.46;96173.25;6348828;22;20037;-91
2021/04/25 10:19:08;;;;;;;19.50;14.85;;;;;;;9.08;62.58;96186.38;6348314;22;20375;-91
2021/04/25 10:21:34;;;;;;;22.80;16.10;;;;;;;9.03;63.79;96168.00;6348715;22;19998;-91
2021/04/25 10:24:00;;;;;;;21.33;16.10;;;;;;;8.88;63.58;96170.53;6348317;22;20006;-91
2021/04/25 10:26:28;;;;;;;22.40;16.02;;;;;;;8.83;61.21;96180.00;6348714;22;19994;-91
2021/04/25 10:29:08;;;;;;;22.80;15.70;;;;;;;9.29;64.77;96228.81;6348814;22;20300;-91
2021/04/25 10:31:35;;;;;;;23.00;15.35;;;;;;;8.79;61.63;96167.81;6348630;22;19998;-91
2021/04/25 10:34:16;;;;;;;20.65;14.90;;;;;;;9.18;62.04;96220.38;6348772;22;20003;-91
2021/04/25 10:36:48;;;;;;;20.52;15.73;;;;;;;9.20;63.96;96220.69;6348168;22;20010;-91
2021/04/25 10:39:35;;;;;;;21.98;15.45;;;;;;;9.16;62.62;96223.56;6348726;22;20066;-89
2021/04/25 10:45:16;;;;;;;19.67;15.70;;;;;;;9.18;64.19;96218.44;6377176;22;20011;-88
2021/04/25 10:47:42;;;;;;;20.02;14.95;;;;;;;9.22;65.17;96221.00;6348567;22;20062;-89
2021/04/25 10:50:16;;;;;;;23.67;16.42;;;;;;;9.17;63.67;96216.19;6348758;22;20393;-89
2021/04/25 10:52:47;;;;;;;24.50;16.10;;;;;;;8.79;63.40;96168.59;6376043;22;20501;-89
2021/04/25 11:00:31;;;;;;;;;;;;;;;9.07;63.40;96220.09;6379781;22;20022;-89
2021/04/25 11:03:01;;;;;;;20.17;16.13;;;;;;;9.09;64.67;96226.53;6348562;22;19902;-88
2021/04/25 11:05:35;;;;;;;22.67;15.80;;;;;;;9.13;63.51;96218.28;6348575;22;20370;-89
2021/04/25 11:08:02;;;;;;;20.17;15.82;;;;;;;8.70;65.90;96149.63;6348429;22;20055;-89
2021/04/25 11:10:52;;;;;;;21.00;16.92;;;;;;;9.04;63.74;96177.63;6348376;22;20002;-89
2021/04/25 11:13:32;;;;;;;20.88;15.73;;;;;;;9.43;63.39;96217.38;6348512;22;19998;-89
2021/04/25 11:16:00;;;;;;;;;;;;;;;9.35;62.80;96210.75;6348755;22;20080;-89
2021/04/25 11:19:02;;;;;;;18.90;14.80;;;;;;;9.52;64.66;96205.00;6348304;22;19932;-88
2021/04/25 11:21:38;;;;;;;19.42;15.88;;;;;;;9.64;63.19;96206.78;6348262;22;20075;-88
2021/04/25 11:24:04;;;;;;;22.83;15.75;;;;;;;9.68;63.98;96213.56;6348396;22;20002;-88
2021/04/25 11:29:14;;;;;;;21.00;16.67;;;;;;;10.01;63.09;96215.59;6375659;22;20101;-89
2021/04/25 11:34:22;;;;;;;20.95;15.43;;;;;;;10.13;62.39;96209.25;6375946;22;20007;-89
2021/04/25 11:36:52;;;;;;;18.40;14.85;;;;;;;9.83;60.53;96161.41;6348420;22;20009;-89
2021/04/25 11:39:19;;;;;;;23.17;15.88;;;;;;;10.04;62.72;96209.28;6348216;22;20002;-88
2021/04/25 11:41:50;;;;;;;19.15;14.75;;;;;;;9.74;62.00;96172.28;6347976;22;20009;-89
2021/04/25 11:44:29;;;;;;;;;;;;;;;10.05;60.86;96208.06;6348661;22;20006;-89
2021/04/25 11:46:55;;;;;;;18.35;13.50;;;;;;;9.91;58.65;96209.47;6348112;22;19931;-89
2021/04/25 11:49:38;;;;;;;18.00;13.40;;;;;;;9.68;59.21;96175.59;6375560;22;20006;-88